Time;durP1;ratioP1;P1;durP2;ratioP2;P2;SDS_P1;SDS_P2;PMS_P1;PMS_P2;Temp;Humidity;BMP_temperature;BMP_pressure;BME280_temperature;BME280_humidity;BME280_pressure;Samples;Min_cycle;Max_cycle;Signal;HPM_P1;HPM_P2
2023/06/23 00:02:05;;;;;;;19.63;8.70;;;;;;;15.25;100.00;101685.72;5060671;28;20373;-80
2023/06/23 00:04:30;;;;;;;20.95;9.25;;;;;;;15.24;100.00;101687.53;5072207;28;20492;-80
2023/06/23 00:06:55;;;;;;;20.45;8.55;;;;;;;15.22;100.00;101694.94;5079177;28;20055;-79
2023/06/23 00:09:22;;;;;;;23.30;9.10;;;;;;;15.15;100.00;101693.69;5082037;28;20456;-80
2023/06/23 00:11:47;;;;;;;20.50;9.27;;;;;;;15.05;100.00;101698.97;5083071;28;20024;-79
2023/06/23 00:14:13;;;;;;;22.63;8.43;;;;;;;15.01;100.00;101701.06;5085903;28;20499;-79
2023/06/23 00:16:39;;;;;;;20.77;8.68;;;;;;;14.96;100.00;101705.09;5079069;28;20024;-79
2023/06/23 00:19:06;;;;;;;19.90;8.85;;;;;;;14.92;100.00;101709.91;5083410;28;20024;-80
2023/06/23 00:21:32;;;;;;;23.52;10.32;;;;;;;14.89;100.00;101718.28;5083651;28;20042;-79
2023/06/23 00:23:57;;;;;;;23.13;9.93;;;;;;;14.88;100.00;101727.38;5079152;28;20028;-80
2023/06/23 00:26:25;;;;;;;20.02;8.75;;;;;;;14.85;100.00;101716.78;5085470;28;20122;-79
2023/06/23 00:28:51;;;;;;;21.70;10.15;;;;;;;14.86;100.00;101715.78;5076019;28;20024;-80
2023/06/23 00:31:16;;;;;;;25.52;10.93;;;;;;;14.84;100.00;101720.47;5080764;28;20757;-79
2023/06/23 00:33:42;;;;;;;24.15;9.88;;;;;;;14.81;100.00;101721.56;5086043;28;20035;-79
2023/06/23 00:36:07;;;;;;;22.17;10.25;;;;;;;14.80;100.00;101727.09;5056509;28;20024;-79
2023/06/23 00:38:33;;;;;;;27.05;11.65;;;;;;;14.80;100.00;101735.19;5081891;28;20111;-80
2023/06/23 00:40:59;;;;;;;26.67;12.15;;;;;;;14.79;100.00;101730.78;5060600;28;20039;-80
2023/06/23 00:43:24;;;;;;;27.98;12.15;;;;;;;14.78;100.00;101738.03;5082338;28;20119;-80
2023/06/23 00:45:50;;;;;;;25.60;12.48;;;;;;;14.78;100.00;101737.19;5078699;28;20032;-80
2023/06/23 00:48:15;;;;;;;22.10;11.10;;;;;;;14.78;100.00;101740.75;5060264;28;20373;-80
2023/06/23 00:50:44;;;;;;;23.42;11.52;;;;;;;14.79;100.00;101737.06;5086342;28;20042;-79
2023/06/23 00:53:10;;;;;;;23.58;12.30;;;;;;;14.79;100.00;101737.06;5074729;28;20028;-80
2023/06/23 00:55:38;;;;;;;24.02;12.63;;;;;;;14.81;100.00;101755.88;5064238;28;20039;-80
2023/06/23 00:58:08;;;;;;;25.10;12.30;;;;;;;14.81;100.00;101755.88;5084157;28;20438;-80
2023/06/23 01:00:33;;;;;;;23.38;12.80;;;;;;;14.85;100.00;101758.22;5085786;28;20016;-84
2023/06/23 01:02:59;;;;;;;27.50;14.15;;;;;;;14.83;100.00;101765.63;5085733;28;20131;-83
2023/06/23 01:05:36;;;;;;;26.73;14.55;;;;;;;14.87;100.00;101773.50;5060152;28;20407;-84
2023/06/23 01:08:32;;;;;;;26.58;14.68;;;;;;;14.87;100.00;101777.06;5072451;28;20032;-82
2023/06/23 01:11:32;;;;;;;27.80;15.00;;;;;;;14.87;100.00;101782.47;5078228;28;20025;-84
2023/06/23 01:14:15;;;;;;;28.00;15.88;;;;;;;14.87;100.00;101793.28;5015527;28;20030;-84
2023/06/23 01:16:49;;;;;;;29.50;16.48;;;;;;;14.86;100.00;101786.16;5020451;28;20437;-85
2023/06/23 01:19:29;;;;;;;27.17;15.40;;;;;;;14.86;100.00;101783.44;4997233;28;20049;-84
2023/06/23 01:21:57;;;;;;;29.52;16.23;;;;;;;14.86;100.00;101780.72;5003269;28;20044;-84
2023/06/23 01:25:17;;;;;;;28.55;17.80;;;;;;;14.90;100.00;101782.22;5013489;28;20076;-84
2023/06/23 01:28:06;;;;;;;30.98;15.38;;;;;;;14.88;100.00;101776.09;4995531;28;20039;-84
2023/06/23 01:30:33;;;;;;;27.23;15.93;;;;;;;14.83;100.00;101778.25;4999764;28;20132;-84
2023/06/23 01:33:06;;;;;;;27.20;17.20;;;;;;;14.80;100.00;101783.91;4974630;28;20057;-85
2023/06/23 01:35:38;;;;;;;28.13;16.63;;;;;;;14.80;100.00;101794.75;5001881;28;20063;-84
2023/06/23 01:38:18;;;;;;;28.80;18.15;;;;;;;14.79;100.00;101798.44;4998449;28;20055;-84
2023/06/23 01:40:49;;;;;;;30.73;17.63;;;;;;;14.79;100.00;101796.59;5001180;28;20063;-84
2023/06/23 01:43:17;;;;;;;30.50;17.98;;;;;;;14.80;100.00;101797.44;4982130;28;20037;-84
2023/06/23 01:45:43;;;;;;;31.08;19.40;;;;;;;14.81;100.00;101804.59;5002785;28;20061;-84
2023/06/23 01:48:12;;;;;;;34.15;17.60;;;;;;;14.82;100.00;101796.34;4984547;28;20053;-84
2023/06/23 01:50:39;;;;;;;30.98;19.17;;;;;;;14.83;100.00;101802.63;4995200;28;20518;-84
2023/06/23 01:53:07;;;;;;;29.20;18.05;;;;;;;14.83;100.00;101799.91;5002886;28;20025;-84
2023/06/23 01:55:34;;;;;;;31.20;18.77;;;;;;;14.83;100.00;101806.22;4983263;28;20049;-83
2023/06/23 01:58:01;;;;;;;32.10;19.92;;;;;;;14.83;100.00;101802.63;5034578;28;20033;-83
2023/06/23 02:00:29;;;;;;;28.15;18.65;;;;;;;14.80;100.00;101809.16;5081357;28;20051;-83
2023/06/23 02:02:55;;;;;;;30.05;18.90;;;;;;;14.80;100.00;101814.56;5079991;28;20525;-83
2023/06/23 02:05:23;;;;;;;27.05;17.75;;;;;;;14.76;100.00;101814.88;5076589;28;20028;-84
2023/06/23 02:07:51;;;;;;;30.10;19.38;;;;;;;14.76;100.00;101817.59;5062628;28;20025;-84
2023/06/23 02:10:17;;;;;;;32.70;19.42;;;;;;;14.74;100.00;101823.13;5062517;28;20105;-84
2023/06/23 02:12:45;;;;;;;30.30;18.23;;;;;;;14.74;100.00;101817.72;5073462;28;20110;-84
2023/06/23 02:15:14;;;;;;;29.90;18.40;;;;;;;14.72;100.00;101821.53;5058432;28;20030;-84
2023/06/23 02:17:42;;;;;;;29.70;18.47;;;;;;;14.71;100.00;101836.03;5056632;28;20423;-84
2023/06/23 02:20:15;;;;;;;31.67;19.45;;;;;;;14.68;100.00;101839.84;5064915;28;20048;-84
2023/06/23 02:22:44;;;;;;;33.15;19.73;;;;;;;14.64;100.00;101841.91;5063077;28;20024;-83
2023/06/23 02:25:11;;;;;;;32.17;19.47;;;;;;;14.61;100.00;101842.16;5064748;28;20030;-84
2023/06/23 02:27:37;;;;;;;30.83;19.80;;;;;;;14.61;100.00;101843.94;5062513;28;20646;-84
2023/06/23 02:30:04;;;;;;;31.00;19.92;;;;;;;14.57;100.00;101843.31;5076587;28;20025;-84
2023/06/23 02:32:31;;;;;;;30.13;19.67;;;;;;;14.57;100.00;101842.44;5061773;28;20076;-83
2023/06/23 02:34:57;;;;;;;31.77;19.63;;;;;;;14.58;100.00;101846.88;5056389;28;20051;-84
2023/06/23 02:37:24;;;;;;;32.30;20.33;;;;;;;14.58;100.00;101860.41;5080872;28;20055;-83
2023/06/23 02:40:03;;;;;;;30.45;19.83;;;;;;;14.55;100.00;101874.16;5074016;28;20038;-84
2023/06/23 02:42:35;;;;;;;36.65;20.90;;;;;;;14.53;100.00;101874.28;5083930;28;20024;-84
2023/06/23 02:45:05;;;;;;;30.85;22.65;;;;;;;14.51;100.00;101881.66;5072812;28;20028;-84
2023/06/23 02:47:35;;;;;;;30.92;21.85;;;;;;;14.49;100.00;101889.00;5057842;28;20028;-84
2023/06/23 02:50:04;;;;;;;32.17;21.30;;;;;;;14.46;100.00;101881.13;5061242;28;20109;-83
2023/06/23 02:52:34;;;;;;;31.52;20.83;;;;;;;14.45;100.00;101873.97;5079441;28;20115;-84
2023/06/23 02:55:03;;;;;;;32.78;21.73;;;;;;;14.43;100.00;101881.34;5061310;28;20506;-84
2023/06/23 02:57:31;;;;;;;31.42;21.60;;;;;;;14.41;100.00;101888.72;5064530;28;20054;-84
2023/06/23 02:59:58;;;;;;;30.27;19.98;;;;;;;14.36;100.00;101890.88;5079238;28;20454;-84
2023/06/23 03:02:25;;;;;;;30.58;20.90;;;;;;;14.34;100.00;101893.69;5049507;28;20414;-83
2023/06/23 03:04:51;;;;;;;31.88;22.65;;;;;;;14.33;100.00;101897.38;5073120;28;20569;-83
2023/06/23 03:07:17;;;;;;;34.83;22.52;;;;;;;14.31;100.00;101894.78;5080164;28;20028;-83
2023/06/23 03:09:44;;;;;;;34.78;22.10;;;;;;;14.27;100.00;101898.66;5074317;28;20032;-84
2023/06/23 03:12:09;;;;;;;31.60;21.40;;;;;;;14.27;100.00;101897.81;5063667;28;20028;-84
2023/06/23 03:14:36;;;;;;;36.85;21.48;;;;;;;14.21;100.00;101900.97;5057104;28;20075;-83
2023/06/23 03:17:30;;;;;;;30.83;21.25;;;;;;;14.22;100.00;101900.84;5082527;28;20030;-84
2023/06/23 03:20:02;;;;;;;33.13;19.92;;;;;;;14.11;100.00;101900.75;5077655;28;20503;-83
2023/06/23 03:22:35;;;;;;;32.38;21.27;;;;;;;14.07;100.00;101901.94;5057751;28;20040;-84
2023/06/23 03:25:05;;;;;;;34.80;22.98;;;;;;;14.06;100.00;101906.50;5072027;28;20050;-84
2023/06/23 03:27:33;;;;;;;30.17;21.02;;;;;;;14.06;100.00;101905.63;5080800;28;20024;-83
2023/06/23 03:30:09;;;;;;;36.55;25.35;;;;;;;14.12;100.00;101899.78;5079456;28;20032;-83
2023/06/23 03:32:47;;;;;;;37.13;25.63;;;;;;;14.13;100.00;101910.50;5075319;28;20038;-84
2023/06/23 03:35:16;;;;;;;34.92;21.80;;;;;;;14.13;100.00;101910.50;5060501;28;20358;-83
2023/06/23 03:37:56;;;;;;;34.85;24.48;;;;;;;14.15;100.00;101907.69;5060463;28;20051;-84
2023/06/23 03:40:23;;;;;;;37.10;25.50;;;;;;;14.12;100.00;101911.47;5079109;28;20094;-83
2023/06/23 03:43:01;;;;;;;36.60;23.10;;;;;;;14.10;100.00;101908.00;5055933;28;20052;-83
2023/06/23 03:45:28;;;;;;;35.17;23.92;;;;;;;14.06;100.00;101895.69;5055076;28;20031;-83
2023/06/23 03:48:00;;;;;;;32.22;22.70;;;;;;;14.04;100.00;101907.56;5075490;28;20033;-84
2023/06/23 03:50:30;;;;;;;34.90;23.20;;;;;;;14.01;100.00;101905.94;5086808;28;20464;-84
2023/06/23 03:52:58;;;;;;;48.35;24.05;;;;;;;14.02;100.00;101915.78;5065605;28;20028;-84
2023/06/23 03:55:26;;;;;;;33.45;23.67;;;;;;;14.02;100.00;101909.53;5079373;28;20468;-83
2023/06/23 03:57:53;;;;;;;33.05;22.65;;;;;;;13.98;100.00;101912.44;5064738;28;20025;-83
2023/06/23 04:00:21;;;;;;;34.42;22.52;;;;;;;13.97;100.00;101917.97;5059817;28;20431;-83
2023/06/23 04:02:51;;;;;;;31.98;21.08;;;;;;;13.99;100.00;101919.56;5051340;28;20129;-83
2023/06/23 04:05:16;;;;;;;;;;;;;;;14.07;100.00;101920.88;5058790;28;20024;-82
2023/06/23 04:07:47;;;;;;;34.40;22.85;;;;;;;13.97;100.00;101928.78;5063565;28;19920;-83
2023/06/23 04:10:17;;;;;;;34.25;22.13;;;;;;;13.96;100.00;101932.44;5085730;28;20028;-83
2023/06/23 04:12:46;;;;;;;35.65;22.20;;;;;;;13.93;100.00;101935.38;5055441;28;20034;-83
2023/06/23 04:15:13;;;;;;;36.47;21.30;;;;;;;13.92;100.00;101931.78;5059643;28;20357;-83
2023/06/23 04:17:41;;;;;;;37.20;22.15;;;;;;;13.92;100.00;101937.19;5062075;28;20024;-84
2023/06/23 04:20:09;;;;;;;37.17;21.80;;;;;;;13.92;100.00;101941.75;5062215;28;20150;-83
2023/06/23 04:22:36;;;;;;;33.67;21.88;;;;;;;13.92;100.00;101939.88;5067801;28;20021;-83
2023/06/23 04:25:04;;;;;;;34.08;22.58;;;;;;;13.92;100.00;101947.13;5084857;28;21335;-84
2023/06/23 04:27:32;;;;;;;32.63;20.73;;;;;;;13.92;100.00;101949.84;5059172;28;20056;-83
2023/06/23 04:29:59;;;;;;;34.53;23.55;;;;;;;13.92;100.00;101958.81;5079572;28;20027;-83
2023/06/23 04:32:24;;;;;;;35.03;20.92;;;;;;;13.93;100.00;101952.44;5077578;28;20028;-83
2023/06/23 04:34:50;;;;;;;32.83;22.10;;;;;;;13.92;100.00;101953.41;5064845;28;20086;-83
2023/06/23 04:37:38;;;;;;;36.33;21.52;;;;;;;13.97;100.00;101959.38;5078014;28;20861;-84
2023/06/23 04:40:08;;;;;;;32.70;21.42;;;;;;;13.99;100.00;101959.25;5071280;28;20031;-83
2023/06/23 04:42:45;;;;;;;32.38;21.60;;;;;;;14.04;100.00;101967.03;5084678;28;20063;-83
2023/06/23 04:45:16;;;;;;;36.15;25.33;;;;;;;14.10;100.00;101975.59;5066846;28;20035;-84
2023/06/23 04:47:45;;;;;;;32.30;21.38;;;;;;;14.15;100.00;101972.56;5065146;28;20274;-83
2023/06/23 04:50:13;;;;;;;39.10;21.98;;;;;;;14.19;100.00;101970.50;5056991;28;20031;-84
2023/06/23 04:52:46;;;;;;;36.55;26.83;;;;;;;14.22;100.00;101976.56;5058832;28;20115;-83
2023/06/23 04:55:14;;;;;;;35.45;23.02;;;;;;;14.25;100.00;101964.66;5067659;28;20036;-83
2023/06/23 04:57:40;;;;;;;41.30;24.23;;;;;;;14.32;100.00;101974.94;5063118;28;20024;-83
2023/06/23 05:00:08;;;;;;;39.72;25.02;;;;;;;14.40;100.00;101976.22;5085423;28;20035;-83
2023/06/23 05:02:35;;;;;;;36.67;26.02;;;;;;;14.48;100.00;101981.94;5062218;28;20044;-83
2023/06/23 05:05:02;;;;;;;40.40;27.48;;;;;;;14.54;100.00;101989.63;5051771;28;20020;-84
2023/06/23 05:07:29;;;;;;;37.88;25.58;;;;;;;14.58;100.00;101988.41;5070338;28;20502;-83
2023/06/23 05:09:56;;;;;;;43.25;27.92;;;;;;;14.67;100.00;102000.44;5066034;28;20028;-83
2023/06/23 05:12:23;;;;;;;42.72;29.23;;;;;;;14.73;100.00;101996.44;5055344;28;20435;-84
2023/06/23 05:14:51;;;;;;;45.95;29.23;;;;;;;14.81;100.00;102002.16;5054389;28;20016;-83
2023/06/23 05:17:18;;;;;;;40.85;29.23;;;;;;;14.86;100.00;101997.25;5055939;28;20029;-83
2023/06/23 05:19:46;;;;;;;45.42;28.65;;;;;;;14.91;100.00;102000.50;5047224;28;20058;-83
2023/06/23 05:22:15;;;;;;;40.70;28.05;;;;;;;14.95;100.00;101999.31;5079662;28;20471;-84
2023/06/23 05:24:45;;;;;;;39.20;27.20;;;;;;;15.01;100.00;101998.84;5078778;28;20380;-83
2023/06/23 05:27:11;;;;;;;40.22;28.55;;;;;;;15.05;100.00;102004.88;5079379;28;20028;-84
2023/06/23 05:29:42;;;;;;;41.63;30.52;;;;;;;15.10;100.00;102010.00;5080443;28;20039;-83
2023/06/23 05:32:11;;;;;;;42.20;29.63;;;;;;;15.16;100.00;102010.38;5069513;28;20050;-83
2023/06/23 05:34:39;;;;;;;41.55;28.25;;;;;;;15.24;100.00;102017.94;5053771;28;20044;-83
2023/06/23 05:37:06;;;;;;;48.55;31.65;;;;;;;15.32;100.00;102020.09;5054604;28;20531;-83
2023/06/23 05:39:34;;;;;;;41.85;28.77;;;;;;;15.35;100.00;102018.00;5078532;28;20027;-84
2023/06/23 05:42:00;;;;;;;39.35;27.10;;;;;;;15.42;100.00;102028.38;5070846;28;20027;-84
2023/06/23 05:44:25;;;;;;;44.45;30.15;;;;;;;15.47;100.00;102018.06;5075955;28;20048;-84
2023/06/23 05:46:55;;;;;;;44.85;30.55;;;;;;;15.54;100.00;102027.47;5066245;28;20490;-83
2023/06/23 05:49:23;;;;;;;41.35;28.13;;;;;;;15.61;100.00;102038.69;5078104;28;20050;-83
2023/06/23 05:51:57;;;;;;;40.88;27.10;;;;;;;15.65;100.00;102026.63;5066578;28;20024;-74
2023/06/23 05:54:25;;;;;;;42.83;26.85;;;;;;;15.66;100.00;102041.91;5093940;22;20056;-71
2023/06/23 05:56:54;;;;;;;30.73;19.60;;;;;;;15.66;100.00;102036.50;5068329;28;20033;-72
2023/06/23 05:59:28;;;;;;;47.50;33.13;;;;;;;15.82;100.00;102038.94;5076819;28;20043;-72
2023/06/23 06:01:58;;;;;;;36.58;20.80;;;;;;;15.79;100.00;102039.19;5069411;28;20380;-71
2023/06/23 06:04:29;;;;;;;31.83;20.50;;;;;;;15.75;100.00;102043.06;5082666;28;20024;-73
2023/06/23 06:06:57;;;;;;;36.65;23.13;;;;;;;15.81;100.00;102039.91;5070955;28;20074;-75
2023/06/23 06:09:25;;;;;;;44.85;31.35;;;;;;;15.94;100.00;102047.97;5080144;28;20442;-75
2023/06/23 06:11:52;;;;;;;44.15;29.55;;;;;;;16.01;100.00;102055.50;5072428;28;20028;-75
2023/06/23 06:14:20;;;;;;;45.75;32.03;;;;;;;16.07;100.00;102059.59;5067254;28;20511;-76
2023/06/23 06:16:48;;;;;;;44.72;32.22;;;;;;;16.11;100.00;102057.53;5047268;28;20112;-76
2023/06/23 06:19:21;;;;;;;47.70;30.67;;;;;;;16.20;100.00;102054.09;5067125;28;20036;-76
2023/06/23 06:21:48;;;;;;;43.38;30.80;;;;;;;16.24;100.00;102058.28;5066605;28;20028;-76
2023/06/23 06:24:15;;;;;;;44.17;29.00;;;;;;;16.24;100.00;102055.59;5064139;28;20039;-77
2023/06/23 06:26:43;;;;;;;41.40;30.35;;;;;;;16.33;100.00;102054.00;5066971;28;20035;-76
2023/06/23 06:29:11;;;;;;;42.63;28.08;;;;;;;16.36;100.00;102053.75;5050697;28;20086;-79
2023/06/23 06:31:37;;;;;;;41.42;28.17;;;;;;;16.42;100.00;102053.25;5064689;28;20042;-79
2023/06/23 06:34:05;;;;;;;36.40;23.42;;;;;;;16.44;100.00;102064.84;5040568;28;20036;-79
2023/06/23 06:36:34;;;;;;;42.83;28.55;;;;;;;16.53;100.00;102066.84;5040327;28;20077;-79
2023/06/23 06:39:01;;;;;;;36.47;22.75;;;;;;;16.60;100.00;102073.53;5049384;28;20017;-79
2023/06/23 06:41:28;;;;;;;41.47;29.40;;;;;;;16.65;100.00;102073.16;5047583;28;20059;-78
2023/06/23 06:43:53;;;;;;;42.05;29.52;;;;;;;16.67;100.00;102084.75;5065856;28;20341;-79
2023/06/23 06:46:19;;;;;;;46.38;31.52;;;;;;;16.72;100.00;102090.69;5045350;28;20028;-79
2023/06/23 06:48:47;;;;;;;41.72;29.15;;;;;;;16.75;100.00;102084.13;5053512;28;20114;-78
2023/06/23 06:51:17;;;;;;;46.30;30.02;;;;;;;16.82;100.00;102096.22;5074183;28;20110;-78
2023/06/23 06:53:44;;;;;;;52.42;34.28;;;;;;;16.84;100.00;102096.09;5062667;28;20440;-78
2023/06/23 06:56:10;;;;;;;47.92;33.13;;;;;;;16.88;100.00;102103.94;5069375;28;20024;-78
2023/06/23 06:58:35;;;;;;;39.15;25.08;;;;;;;16.90;100.00;102092.94;5081652;28;20055;-78
2023/06/23 07:01:01;;;;;;;51.03;33.53;;;;;;;16.96;100.00;102100.59;5069564;28;20543;-78
2023/06/23 07:03:27;;;;;;;35.00;23.55;;;;;;;17.01;100.00;102092.91;5068928;28;20047;-78
2023/06/23 07:05:52;;;;;;;45.92;33.33;;;;;;;17.05;100.00;102097.13;5051817;28;20024;-78
2023/06/23 07:08:17;;;;;;;42.47;28.80;;;;;;;17.15;100.00;102099.09;5055863;28;20036;-78
2023/06/23 07:10:43;;;;;;;41.90;29.52;;;;;;;17.16;100.00;102112.56;5074888;28;20459;-77
2023/06/23 07:13:08;;;;;;;46.30;32.13;;;;;;;17.24;100.00;102111.94;5058829;28;20028;-77
2023/06/23 07:15:33;;;;;;;41.92;30.13;;;;;;;17.32;100.00;102120.31;5082475;28;20483;-77
2023/06/23 07:17:59;;;;;;;41.08;29.15;;;;;;;17.39;100.00;102113.38;5054413;28;20480;-77
2023/06/23 07:20:24;;;;;;;36.08;25.02;;;;;;;17.44;100.00;102115.75;5079865;28;20028;-77
2023/06/23 07:22:49;;;;;;;26.13;13.10;;;;;;;17.39;100.00;102120.66;5062727;28;20027;-77
2023/06/23 07:25:15;;;;;;;41.47;30.42;;;;;;;17.50;100.00;102117.06;5081461;28;20131;-78
2023/06/23 07:27:41;;;;;;;41.00;26.98;;;;;;;17.51;100.00;102126.94;5062784;28;20543;-77
2023/06/23 07:30:09;;;;;;;37.88;25.25;;;;;;;17.56;100.00;102127.44;5078799;28;20452;-77
2023/06/23 07:32:34;;;;;;;39.90;25.75;;;;;;;17.60;100.00;102126.19;5068482;28;20112;-77
2023/06/23 07:35:00;;;;;;;37.22;26.17;;;;;;;17.64;100.00;102122.22;5081795;28;20111;-77
2023/06/23 07:37:25;;;;;;;32.78;21.05;;;;;;;17.65;100.00;102137.53;5082073;28;20092;-77
2023/06/23 07:39:51;;;;;;;39.83;23.38;;;;;;;17.73;100.00;102120.59;5073501;28;20052;-77
2023/06/23 07:42:16;;;;;;;34.33;22.08;;;;;;;17.74;100.00;102133.19;5063740;28;20122;-78
2023/06/23 07:44:41;;;;;;;31.58;17.65;;;;;;;17.79;100.00;102131.81;5056123;28;20021;-77
2023/06/23 07:47:07;;;;;;;35.05;24.40;;;;;;;17.89;100.00;102136.47;5057485;28;20123;-77
2023/06/23 07:49:33;;;;;;;38.42;23.10;;;;;;;17.92;100.00;102134.41;5053966;28;20032;-77
2023/06/23 07:52:04;;;;;;;39.05;22.67;;;;;;;17.98;100.00;102127.59;5067315;28;20040;-77
2023/06/23 07:54:30;;;;;;;35.13;21.70;;;;;;;17.99;100.00;102132.91;5060793;28;20136;-77
2023/06/23 07:56:56;;;;;;;34.00;20.58;;;;;;;18.06;100.00;102133.22;5052992;28;20082;-77
2023/06/23 07:59:22;;;;;;;30.15;20.63;;;;;;;18.14;100.00;102135.28;5065675;28;20455;-76
2023/06/23 08:01:47;;;;;;;31.75;21.10;;;;;;;18.19;100.00;102127.63;5072352;28;20032;-77
2023/06/23 08:04:13;;;;;;;32.58;19.60;;;;;;;18.21;100.00;102138.38;5077997;28;20424;-76
2023/06/23 08:06:38;;;;;;;29.75;19.65;;;;;;;18.23;100.00;102137.25;5060646;28;20033;-77
2023/06/23 08:09:04;;;;;;;32.10;19.70;;;;;;;18.29;100.00;102138.59;5060792;28;20062;-77
2023/06/23 08:11:30;;;;;;;31.05;18.65;;;;;;;18.33;100.00;102132.75;5059372;28;20085;-77
2023/06/23 08:13:55;;;;;;;33.67;21.67;;;;;;;18.37;100.00;102143.34;5077025;28;20028;-77
2023/06/23 08:16:21;;;;;;;30.50;19.05;;;;;;;18.42;100.00;102141.09;5061441;28;20153;-76
2023/06/23 08:18:46;;;;;;;29.38;18.70;;;;;;;18.47;100.00;102136.13;5063507;28;20029;-77
2023/06/23 08:21:12;;;;;;;36.08;18.00;;;;;;;18.54;100.00;102139.16;5070222;28;20051;-77
2023/06/23 08:23:38;;;;;;;23.52;11.43;;;;;;;18.48;100.00;102140.59;5074530;28;20032;-77
2023/06/23 08:26:03;;;;;;;28.67;15.85;;;;;;;18.57;100.00;102142.50;5077189;28;20439;-78
2023/06/23 08:28:29;;;;;;;24.55;12.43;;;;;;;18.59;100.00;102143.22;5074887;28;20147;-77
2023/06/23 08:30:55;;;;;;;27.60;16.23;;;;;;;18.64;100.00;102143.69;5056397;28;20481;-77
2023/06/23 08:33:20;;;;;;;28.77;17.48;;;;;;;18.74;100.00;102143.75;5077090;28;20031;-77
2023/06/23 08:35:45;;;;;;;30.98;16.95;;;;;;;18.81;100.00;102144.91;5082413;28;20035;-77
2023/06/23 08:38:13;;;;;;;23.88;13.70;;;;;;;18.90;100.00;102156.03;5081711;28;20484;-78
2023/06/23 08:40:40;;;;;;;26.88;14.63;;;;;;;18.92;100.00;102157.63;5080925;28;20111;-77
2023/06/23 08:43:08;;;;;;;26.23;15.23;;;;;;;18.98;100.00;102159.81;5085257;28;20034;-78
2023/06/23 08:45:35;;;;;;;27.35;15.13;;;;;;;19.02;100.00;102160.44;5077895;28;20029;-77
2023/06/23 08:48:02;;;;;;;27.23;15.80;;;;;;;19.08;100.00;102173.50;5089882;28;20027;-77
2023/06/23 08:50:28;;;;;;;25.77;15.52;;;;;;;19.18;100.00;102168.94;5071951;28;20123;-77
2023/06/23 08:52:58;;;;;;;24.67;14.15;;;;;;;19.20;100.00;102175.13;5062928;28;21205;-76
2023/06/23 08:55:24;;;;;;;25.80;13.43;;;;;;;19.21;100.00;102174.13;5064467;28;20035;-77
2023/06/23 08:57:49;;;;;;;25.85;13.57;;;;;;;19.28;100.00;102177.16;5077900;28;20012;-77
2023/06/23 09:00:15;;;;;;;25.98;13.30;;;;;;;19.31;100.00;102178.75;5076820;28;20024;-78
2023/06/23 09:02:41;;;;;;;24.35;12.65;;;;;;;19.42;100.00;102185.97;5067887;28;20025;-77
2023/06/23 09:05:07;;;;;;;23.88;12.30;;;;;;;19.47;100.00;102173.63;5067380;28;20101;-77
2023/06/23 09:07:32;;;;;;;25.15;12.95;;;;;;;19.52;100.00;102179.53;5083230;28;20032;-77
2023/06/23 09:09:58;;;;;;;23.35;10.80;;;;;;;19.60;100.00;102183.44;5082254;28;20024;-77
2023/06/23 09:12:25;;;;;;;22.10;10.73;;;;;;;19.62;97.79;102186.88;5076212;28;20032;-77
2023/06/23 09:14:57;;;;;;;22.73;10.13;;;;;;;19.66;100.00;102182.88;5061399;28;20138;-77
2023/06/23 09:17:23;;;;;;;20.77;8.73;;;;;;;19.69;100.00;102188.06;5068843;28;20184;-77
2023/06/23 09:19:49;;;;;;;17.90;7.35;;;;;;;19.68;100.00;102191.81;5066570;28;20107;-76
2023/06/23 09:22:19;;;;;;;20.23;9.25;;;;;;;19.73;100.00;102194.97;5061706;28;20032;-77
2023/06/23 09:24:46;;;;;;;20.95;9.70;;;;;;;19.71;100.00;102184.19;5050985;28;20024;-77
2023/06/23 09:27:12;;;;;;;21.58;9.13;;;;;;;19.76;100.00;102200.13;5066331;28;20028;-77
2023/06/23 09:29:37;;;;;;;21.25;8.70;;;;;;;19.79;100.00;102188.13;5066253;28;20025;-76
2023/06/23 09:32:04;;;;;;;20.00;8.45;;;;;;;19.84;100.00;102200.34;5066845;28;20387;-77
2023/06/23 09:34:34;;;;;;;23.50;11.93;;;;;;;19.86;98.93;102205.66;5065652;28;20020;-77
2023/06/23 09:37:14;;;;;;;23.02;10.77;;;;;;;19.88;100.00;102207.25;5054619;28;20032;-76
2023/06/23 09:39:49;;;;;;;20.48;9.02;;;;;;;19.87;95.86;102218.28;5054615;28;20105;-77
2023/06/23 09:42:15;;;;;;;18.52;8.23;;;;;;;19.90;100.00;102215.28;5065223;28;20127;-76
2023/06/23 09:44:45;;;;;;;20.75;8.85;;;;;;;19.90;96.91;102224.31;5079568;28;20107;-77
2023/06/23 09:47:13;;;;;;;;;;;;;;;19.97;100.00;102219.19;5073183;28;20538;-77
2023/06/23 09:49:46;;;;;;;21.73;9.15;;;;;;;20.10;92.99;102221.63;5082008;28;20262;-77
2023/06/23 09:52:14;;;;;;;21.85;9.70;;;;;;;20.14;94.23;102216.75;5058714;28;20565;-77
2023/06/23 09:54:40;;;;;;;19.65;7.95;;;;;;;20.19;94.59;102211.72;5074252;28;20036;-78
2023/06/23 09:57:08;;;;;;;20.27;9.25;;;;;;;20.17;94.83;102214.59;5074687;28;20078;-77
2023/06/23 09:59:37;;;;;;;21.98;9.23;;;;;;;20.20;92.33;102219.75;5061810;28;20025;-78
2023/06/23 10:02:03;;;;;;;20.23;8.57;;;;;;;20.24;93.99;102217.63;5080843;28;20016;-77
2023/06/23 10:04:32;;;;;;;22.83;9.43;;;;;;;20.27;95.90;102208.28;5079277;28;20491;-78
2023/06/23 10:06:58;;;;;;;20.90;8.53;;;;;;;20.32;90.37;102208.72;5060285;28;20056;-79
2023/06/23 10:09:25;;;;;;;23.15;9.48;;;;;;;20.37;93.24;102198.22;5062077;28;20024;-77
2023/06/23 10:11:51;;;;;;;19.80;8.48;;;;;;;20.48;97.76;102203.53;5048214;28;20025;-78
2023/06/23 10:14:18;;;;;;;23.13;9.05;;;;;;;20.52;95.04;102204.97;5058576;28;20445;-78
2023/06/23 10:16:44;;;;;;;20.83;8.90;;;;;;;20.58;96.02;102206.25;5064458;28;20054;-78
2023/06/23 10:19:10;;;;;;;22.67;8.60;;;;;;;20.54;89.29;102213.88;5067994;28;20032;-77
2023/06/23 10:21:36;;;;;;;21.15;7.85;;;;;;;20.53;92.54;102212.16;5082696;28;20101;-78
2023/06/23 10:24:04;;;;;;;23.52;8.43;;;;;;;20.60;90.30;102210.56;5049495;28;20449;-78
2023/06/23 10:26:31;;;;;;;18.50;7.00;;;;;;;20.59;91.31;102210.72;5058526;28;20440;-77
2023/06/23 10:28:58;;;;;;;22.65;7.82;;;;;;;20.71;94.20;102223.22;5084108;28;20073;-78
2023/06/23 10:31:24;;;;;;;18.42;7.47;;;;;;;20.71;87.39;102211.44;5053664;28;20554;-78
2023/06/23 10:33:52;;;;;;;17.85;6.30;;;;;;;20.73;86.62;102212.16;5078608;28;20032;-78
2023/06/23 10:36:20;;;;;;;17.25;6.50;;;;;;;20.74;88.41;102212.00;5077139;28;20090;-78
2023/06/23 10:38:49;;;;;;;18.13;7.28;;;;;;;20.85;89.56;102216.47;5078599;28;20024;-78
2023/06/23 10:41:15;;;;;;;21.15;8.40;;;;;;;20.92;84.78;102214.00;5068715;28;20028;-78
2023/06/23 10:43:46;;;;;;;19.90;7.93;;;;;;;20.99;83.71;102212.38;5059049;28;20032;-79
2023/06/23 10:46:11;;;;;;;18.10;6.28;;;;;;;21.01;86.84;102220.44;5050667;28;20451;-77
2023/06/23 10:48:38;;;;;;;15.80;5.72;;;;;;;21.03;90.10;102222.03;5082439;28;20028;-78
2023/06/23 10:51:04;;;;;;;18.90;7.22;;;;;;;21.15;85.01;102217.25;5082179;28;20495;-78
2023/06/23 10:53:32;;;;;;;18.65;6.78;;;;;;;21.16;85.57;102220.81;5069876;28;20039;-77
2023/06/23 10:55:58;;;;;;;20.40;6.97;;;;;;;21.20;86.90;102217.66;5068687;28;20122;-79
2023/06/23 10:58:25;;;;;;;19.48;7.80;;;;;;;21.29;84.02;102224.97;5063065;28;20106;-77
2023/06/23 11:00:53;;;;;;;20.63;7.22;;;;;;;21.30;83.52;102223.97;5057512;28;20036;-79
2023/06/23 11:03:25;;;;;;;18.30;7.40;;;;;;;21.45;84.88;102226.19;5068478;28;20036;-78
2023/06/23 11:05:58;;;;;;;18.95;6.65;;;;;;;21.47;77.77;102235.13;5055574;28;20036;-78
2023/06/23 11:08:32;;;;;;;18.90;5.85;;;;;;;21.52;75.17;102230.06;5065428;28;20104;-77
2023/06/23 11:10:59;;;;;;;21.13;6.32;;;;;;;21.54;77.52;102233.53;5059625;28;20040;-78